sensor_id;sensor_type;location;lat;lon;timestamp;temperature;humidity
1351;DHT22;669;50.206;9.998;2022-08-19T00:01:59;19.80;63.80
1351;DHT22;669;50.206;9.998;2022-08-19T00:04:29;19.80;63.90
1351;DHT22;669;50.206;9.998;2022-08-19T00:06:59;19.80;63.00
1351;DHT22;669;50.206;9.998;2022-08-19T00:09:28;19.80;63.20
1351;DHT22;669;50.206;9.998;2022-08-19T00:11:57;19.80;62.60
1351;DHT22;669;50.206;9.998;2022-08-19T00:14:26;19.80;62.30
1351;DHT22;669;50.206;9.998;2022-08-19T00:16:54;19.80;62.70
1351;DHT22;669;50.206;9.998;2022-08-19T00:19:23;19.80;63.10
1351;DHT22;669;50.206;9.998;2022-08-19T00:21:51;19.70;63.00
1351;DHT22;669;50.206;9.998;2022-08-19T00:24:19;19.70;64.20
1351;DHT22;669;50.206;9.998;2022-08-19T00:26:49;19.60;65.30
1351;DHT22;669;50.206;9.998;2022-08-19T00:29:19;19.60;64.40
1351;DHT22;669;50.206;9.998;2022-08-19T00:31:47;19.60;64.20
1351;DHT22;669;50.206;9.998;2022-08-19T00:34:16;19.60;63.70
1351;DHT22;669;50.206;9.998;2022-08-19T00:36:45;19.50;64.60
1351;DHT22;669;50.206;9.998;2022-08-19T00:39:14;19.40;65.00
1351;DHT22;669;50.206;9.998;2022-08-19T00:41:44;19.40;65.00
1351;DHT22;669;50.206;9.998;2022-08-19T00:44:17;19.30;65.60
1351;DHT22;669;50.206;9.998;2022-08-19T00:46:47;19.30;65.80
1351;DHT22;669;50.206;9.998;2022-08-19T00:49:27;19.20;66.20
1351;DHT22;669;50.206;9.998;2022-08-19T00:52:00;19.20;66.20
1351;DHT22;669;50.206;9.998;2022-08-19T00:54:29;19.10;66.50
1351;DHT22;669;50.206;9.998;2022-08-19T00:56:59;19.00;67.10
1351;DHT22;669;50.206;9.998;2022-08-19T00:59:29;19.00;68.10
1351;DHT22;669;50.206;9.998;2022-08-19T01:02:17;19.00;68.10
1351;DHT22;669;50.206;9.998;2022-08-19T01:04:46;18.90;68.00
1351;DHT22;669;50.206;9.998;2022-08-19T01:07:14;18.90;67.90
1351;DHT22;669;50.206;9.998;2022-08-19T01:09:45;18.90;68.30
1351;DHT22;669;50.206;9.998;2022-08-19T01:12:14;18.90;68.00
1351;DHT22;669;50.206;9.998;2022-08-19T01:14:43;18.90;67.30
1351;DHT22;669;50.206;9.998;2022-08-19T01:17:12;18.80;65.80
1351;DHT22;669;50.206;9.998;2022-08-19T01:19:42;18.60;67.20
1351;DHT22;669;50.206;9.998;2022-08-19T01:22:15;18.60;67.70
1351;DHT22;669;50.206;9.998;2022-08-19T01:24:54;18.60;67.80
1351;DHT22;669;50.206;9.998;2022-08-19T01:27:22;18.70;67.90
1351;DHT22;669;50.206;9.998;2022-08-19T01:29:50;18.70;67.90
1351;DHT22;669;50.206;9.998;2022-08-19T01:32:18;18.80;67.90
1351;DHT22;669;50.206;9.998;2022-08-19T01:35:00;18.80;67.40
1351;DHT22;669;50.206;9.998;2022-08-19T01:37:30;18.80;67.10
1351;DHT22;669;50.206;9.998;2022-08-19T01:39:59;18.70;67.70
1351;DHT22;669;50.206;9.998;2022-08-19T01:42:33;18.70;67.10
1351;DHT22;669;50.206;9.998;2022-08-19T01:45:01;18.60;67.80
1351;DHT22;669;50.206;9.998;2022-08-19T01:47:29;18.50;67.30
1351;DHT22;669;50.206;9.998;2022-08-19T01:49:58;18.40;68.20
1351;DHT22;669;50.206;9.998;2022-08-19T01:52:26;18.40;69.20
1351;DHT22;669;50.206;9.998;2022-08-19T01:54:54;18.30;69.90
1351;DHT22;669;50.206;9.998;2022-08-19T01:57:23;18.30;71.30
1351;DHT22;669;50.206;9.998;2022-08-19T01:59:52;18.30;71.10
1351;DHT22;669;50.206;9.998;2022-08-19T02:02:20;18.40;70.10
1351;DHT22;669;50.206;9.998;2022-08-19T02:04:48;18.40;70.20
1351;DHT22;669;50.206;9.998;2022-08-19T02:07:19;18.40;70.00
1351;DHT22;669;50.206;9.998;2022-08-19T02:09:47;18.50;70.80
1351;DHT22;669;50.206;9.998;2022-08-19T02:12:15;18.50;71.80
1351;DHT22;669;50.206;9.998;2022-08-19T02:14:45;18.60;71.40
1351;DHT22;669;50.206;9.998;2022-08-19T02:17:13;18.60;70.60
1351;DHT22;669;50.206;9.998;2022-08-19T02:19:41;18.60;70.70
1351;DHT22;669;50.206;9.998;2022-08-19T02:22:09;18.60;69.90
1351;DHT22;669;50.206;9.998;2022-08-19T02:24:37;18.70;69.90
1351;DHT22;669;50.206;9.998;2022-08-19T02:27:05;18.70;69.20
1351;DHT22;669;50.206;9.998;2022-08-19T02:29:33;18.70;70.00
1351;DHT22;669;50.206;9.998;2022-08-19T02:32:03;18.70;69.50
1351;DHT22;669;50.206;9.998;2022-08-19T02:34:31;18.70;69.10
1351;DHT22;669;50.206;9.998;2022-08-19T02:36:59;18.70;69.40
1351;DHT22;669;50.206;9.998;2022-08-19T02:39:29;18.70;69.50
1351;DHT22;669;50.206;9.998;2022-08-19T02:41:56;18.70;69.00
1351;DHT22;669;50.206;9.998;2022-08-19T02:44:26;18.60;70.20
1351;DHT22;669;50.206;9.998;2022-08-19T02:46:57;18.60;71.00
1351;DHT22;669;50.206;9.998;2022-08-19T02:49:27;18.60;71.10
1351;DHT22;669;50.206;9.998;2022-08-19T02:52:00;18.60;71.10
1351;DHT22;669;50.206;9.998;2022-08-19T02:54:28;18.70;70.20
1351;DHT22;669;50.206;9.998;2022-08-19T02:56:56;18.60;70.90
1351;DHT22;669;50.206;9.998;2022-08-19T02:59:25;18.50;71.10
1351;DHT22;669;50.206;9.998;2022-08-19T03:01:53;18.60;70.80
1351;DHT22;669;50.206;9.998;2022-08-19T03:04:21;18.60;70.50
1351;DHT22;669;50.206;9.998;2022-08-19T03:06:52;18.60;70.60
1351;DHT22;669;50.206;9.998;2022-08-19T03:09:24;18.60;70.90
1351;DHT22;669;50.206;9.998;2022-08-19T03:11:52;18.60;70.80
1351;DHT22;669;50.206;9.998;2022-08-19T03:14:19;18.60;70.90
1351;DHT22;669;50.206;9.998;2022-08-19T03:16:49;18.60;70.30
1351;DHT22;669;50.206;9.998;2022-08-19T03:19:19;18.50;71.30
1351;DHT22;669;50.206;9.998;2022-08-19T03:21:48;18.40;72.40
1351;DHT22;669;50.206;9.998;2022-08-19T03:24:18;18.40;72.50
1351;DHT22;669;50.206;9.998;2022-08-19T03:26:48;18.50;72.20
1351;DHT22;669;50.206;9.998;2022-08-19T03:29:17;18.60;72.20
1351;DHT22;669;50.206;9.998;2022-08-19T03:31:57;18.60;71.80
1351;DHT22;669;50.206;9.998;2022-08-19T03:34:29;18.60;72.30
1351;DHT22;669;50.206;9.998;2022-08-19T03:37:04;18.70;71.70
1351;DHT22;669;50.206;9.998;2022-08-19T03:39:35;18.70;71.60
1351;DHT22;669;50.206;9.998;2022-08-19T03:42:03;18.60;72.70
1351;DHT22;669;50.206;9.998;2022-08-19T03:44:52;18.60;71.70
1351;DHT22;669;50.206;9.998;2022-08-19T03:47:20;18.60;72.00
1351;DHT22;669;50.206;9.998;2022-08-19T03:49:48;18.60;72.20
1351;DHT22;669;50.206;9.998;2022-08-19T03:52:16;18.50;73.40
1351;DHT22;669;50.206;9.998;2022-08-19T03:54:45;18.50;73.50
1351;DHT22;669;50.206;9.998;2022-08-19T03:57:13;18.60;72.30
1351;DHT22;669;50.206;9.998;2022-08-19T03:59:41;18.60;71.50
1351;DHT22;669;50.206;9.998;2022-08-19T04:02:10;18.50;72.10
1351;DHT22;669;50.206;9.998;2022-08-19T04:04:40;18.40;73.40
1351;DHT22;669;50.206;9.998;2022-08-19T04:07:09;18.40;72.50
1351;DHT22;669;50.206;9.998;2022-08-19T04:09:37;18.40;72.50
1351;DHT22;669;50.206;9.998;2022-08-19T04:12:08;18.30;72.70
1351;DHT22;669;50.206;9.998;2022-08-19T04:14:36;18.30;73.50
1351;DHT22;669;50.206;9.998;2022-08-19T04:17:04;18.30;73.60
1351;DHT22;669;50.206;9.998;2022-08-19T04:19:33;18.30;73.50
1351;DHT22;669;50.206;9.998;2022-08-19T04:22:02;18.30;73.90
1351;DHT22;669;50.206;9.998;2022-08-19T04:24:31;18.30;73.20
1351;DHT22;669;50.206;9.998;2022-08-19T04:26:59;18.30;72.90
1351;DHT22;669;50.206;9.998;2022-08-19T04:29:29;18.30;72.90
1351;DHT22;669;50.206;9.998;2022-08-19T04:31:57;18.20;73.50
1351;DHT22;669;50.206;9.998;2022-08-19T04:34:35;18.20;73.20
1351;DHT22;669;50.206;9.998;2022-08-19T04:37:23;18.20;73.20
1351;DHT22;669;50.206;9.998;2022-08-19T04:39:55;18.20;73.40
1351;DHT22;669;50.206;9.998;2022-08-19T04:42:40;18.20;74.10
1351;DHT22;669;50.206;9.998;2022-08-19T04:45:12;18.10;73.80
1351;DHT22;669;50.206;9.998;2022-08-19T04:47:43;18.20;74.00
1351;DHT22;669;50.206;9.998;2022-08-19T04:50:23;18.30;74.40
1351;DHT22;669;50.206;9.998;2022-08-19T04:52:51;18.40;74.30
1351;DHT22;669;50.206;9.998;2022-08-19T04:55:20;18.30;75.50
1351;DHT22;669;50.206;9.998;2022-08-19T04:57:48;18.40;75.10
1351;DHT22;669;50.206;9.998;2022-08-19T05:00:19;18.40;74.30
1351;DHT22;669;50.206;9.998;2022-08-19T05:02:47;18.50;73.90
1351;DHT22;669;50.206;9.998;2022-08-19T05:05:16;18.50;73.50
1351;DHT22;669;50.206;9.998;2022-08-19T05:07:44;18.50;72.60
1351;DHT22;669;50.206;9.998;2022-08-19T05:10:12;18.50;73.10
1351;DHT22;669;50.206;9.998;2022-08-19T05:12:40;18.40;73.80
1351;DHT22;669;50.206;9.998;2022-08-19T05:15:08;18.40;74.50
1351;DHT22;669;50.206;9.998;2022-08-19T05:17:38;18.40;74.50
1351;DHT22;669;50.206;9.998;2022-08-19T05:20:26;18.50;74.10
1351;DHT22;669;50.206;9.998;2022-08-19T05:23:12;18.60;74.20
1351;DHT22;669;50.206;9.998;2022-08-19T05:25:48;18.60;73.90
1351;DHT22;669;50.206;9.998;2022-08-19T05:28:16;18.70;74.40
1351;DHT22;669;50.206;9.998;2022-08-19T05:30:45;18.80;73.50
1351;DHT22;669;50.206;9.998;2022-08-19T05:33:15;18.70;73.80
1351;DHT22;669;50.206;9.998;2022-08-19T05:35:43;18.70;72.90
1351;DHT22;669;50.206;9.998;2022-08-19T05:38:11;18.70;73.40
1351;DHT22;669;50.206;9.998;2022-08-19T05:40:39;18.70;73.50
1351;DHT22;669;50.206;9.998;2022-08-19T05:43:08;18.80;74.10
1351;DHT22;669;50.206;9.998;2022-08-19T05:45:39;18.80;74.10
1351;DHT22;669;50.206;9.998;2022-08-19T05:48:09;18.90;73.90
1351;DHT22;669;50.206;9.998;2022-08-19T05:50:40;19.00;73.10
1351;DHT22;669;50.206;9.998;2022-08-19T05:53:08;19.00;72.80
1351;DHT22;669;50.206;9.998;2022-08-19T05:55:36;19.10;72.60
1351;DHT22;669;50.206;9.998;2022-08-19T05:58:06;19.20;72.30
1351;DHT22;669;50.206;9.998;2022-08-19T06:00:34;19.20;72.30
1351;DHT22;669;50.206;9.998;2022-08-19T06:03:02;19.30;72.00
1351;DHT22;669;50.206;9.998;2022-08-19T06:05:41;19.40;71.90
1351;DHT22;669;50.206;9.998;2022-08-19T06:08:18;19.40;71.90
1351;DHT22;669;50.206;9.998;2022-08-19T06:11:13;19.50;71.30
1351;DHT22;669;50.206;9.998;2022-08-19T06:13:42;19.50;70.40
1351;DHT22;669;50.206;9.998;2022-08-19T06:16:11;19.60;71.40
1351;DHT22;669;50.206;9.998;2022-08-19T06:18:39;19.70;71.60
1351;DHT22;669;50.206;9.998;2022-08-19T06:21:08;19.70;71.40
1351;DHT22;669;50.206;9.998;2022-08-19T06:23:36;19.80;71.00
1351;DHT22;669;50.206;9.998;2022-08-19T06:26:05;19.70;71.60
1351;DHT22;669;50.206;9.998;2022-08-19T06:28:34;19.80;71.30
1351;DHT22;669;50.206;9.998;2022-08-19T06:31:06;19.90;70.80
1351;DHT22;669;50.206;9.998;2022-08-19T06:33:34;19.90;71.40
1351;DHT22;669;50.206;9.998;2022-08-19T06:36:02;19.90;71.00
1351;DHT22;669;50.206;9.998;2022-08-19T06:38:32;20.00;69.40
1351;DHT22;669;50.206;9.998;2022-08-19T06:41:01;20.10;69.20
1351;DHT22;669;50.206;9.998;2022-08-19T06:43:33;20.10;69.20
1351;DHT22;669;50.206;9.998;2022-08-19T06:46:11;20.10;68.20
1351;DHT22;669;50.206;9.998;2022-08-19T06:48:41;20.10;68.30
1351;DHT22;669;50.206;9.998;2022-08-19T06:51:12;20.20;68.20
1351;DHT22;669;50.206;9.998;2022-08-19T06:53:47;20.20;68.20
1351;DHT22;669;50.206;9.998;2022-08-19T06:56:22;20.20;67.70
1351;DHT22;669;50.206;9.998;2022-08-19T06:58:51;20.30;68.20
1351;DHT22;669;50.206;9.998;2022-08-19T07:01:20;20.30;66.80
1351;DHT22;669;50.206;9.998;2022-08-19T07:03:48;20.40;65.90
1351;DHT22;669;50.206;9.998;2022-08-19T07:06:18;20.50;64.60
1351;DHT22;669;50.206;9.998;2022-08-19T07:09:12;20.60;63.80
1351;DHT22;669;50.206;9.998;2022-08-19T07:11:45;20.70;63.50
1351;DHT22;669;50.206;9.998;2022-08-19T07:14:13;20.80;62.90
1351;DHT22;669;50.206;9.998;2022-08-19T07:16:46;21.00;62.30
1351;DHT22;669;50.206;9.998;2022-08-19T07:19:15;21.30;60.90
1351;DHT22;669;50.206;9.998;2022-08-19T07:21:46;21.50;60.40
1351;DHT22;669;50.206;9.998;2022-08-19T07:24:16;21.70;59.60
1351;DHT22;669;50.206;9.998;2022-08-19T07:26:44;21.80;59.90
1351;DHT22;669;50.206;9.998;2022-08-19T07:29:18;21.90;59.10
1351;DHT22;669;50.206;9.998;2022-08-19T07:31:54;21.90;58.90
1351;DHT22;669;50.206;9.998;2022-08-19T07:34:27;22.00;58.10
1351;DHT22;669;50.206;9.998;2022-08-19T07:36:56;22.00;57.70
1351;DHT22;669;50.206;9.998;2022-08-19T07:39:28;22.00;56.90
1351;DHT22;669;50.206;9.998;2022-08-19T07:41:58;22.00;57.20
1351;DHT22;669;50.206;9.998;2022-08-19T07:44:26;22.00;57.60
1351;DHT22;669;50.206;9.998;2022-08-19T07:46:56;22.00;58.00
1351;DHT22;669;50.206;9.998;2022-08-19T07:49:25;22.10;58.60
1351;DHT22;669;50.206;9.998;2022-08-19T07:51:55;22.10;57.70
1351;DHT22;669;50.206;9.998;2022-08-19T07:54:27;22.20;57.90
1351;DHT22;669;50.206;9.998;2022-08-19T07:56:55;22.20;57.30
1351;DHT22;669;50.206;9.998;2022-08-19T07:59:24;22.20;56.90
1351;DHT22;669;50.206;9.998;2022-08-19T08:01:52;22.20;57.10
1351;DHT22;669;50.206;9.998;2022-08-19T08:04:20;22.10;56.90
1351;DHT22;669;50.206;9.998;2022-08-19T08:07:06;22.10;57.20
1351;DHT22;669;50.206;9.998;2022-08-19T08:09:59;22.10;57.00
1351;DHT22;669;50.206;9.998;2022-08-19T08:12:32;22.10;56.60
1351;DHT22;669;50.206;9.998;2022-08-19T08:15:06;22.20;56.50
1351;DHT22;669;50.206;9.998;2022-08-19T08:17:38;22.20;56.50
1351;DHT22;669;50.206;9.998;2022-08-19T08:20:18;22.30;56.50
1351;DHT22;669;50.206;9.998;2022-08-19T08:22:47;22.30;56.10
1351;DHT22;669;50.206;9.998;2022-08-19T08:25:35;22.40;56.40
1351;DHT22;669;50.206;9.998;2022-08-19T08:28:04;22.40;56.50
1351;DHT22;669;50.206;9.998;2022-08-19T08:30:32;22.40;56.50
1351;DHT22;669;50.206;9.998;2022-08-19T08:33:03;22.40;55.90
1351;DHT22;669;50.206;9.998;2022-08-19T08:35:32;22.40;56.00
1351;DHT22;669;50.206;9.998;2022-08-19T08:38:00;22.40;56.50
1351;DHT22;669;50.206;9.998;2022-08-19T08:40:38;22.50;56.30
1351;DHT22;669;50.206;9.998;2022-08-19T08:43:11;22.40;56.10
1351;DHT22;669;50.206;9.998;2022-08-19T08:45:47;22.50;56.20
1351;DHT22;669;50.206;9.998;2022-08-19T08:48:24;22.50;55.80
1351;DHT22;669;50.206;9.998;2022-08-19T08:50:54;22.50;56.00
1351;DHT22;669;50.206;9.998;2022-08-19T08:53:22;22.40;54.90
1351;DHT22;669;50.206;9.998;2022-08-19T08:55:59;22.40;54.90
1351;DHT22;669;50.206;9.998;2022-08-19T08:58:33;22.50;54.40
1351;DHT22;669;50.206;9.998;2022-08-19T09:01:10;22.50;53.40
1351;DHT22;669;50.206;9.998;2022-08-19T09:03:40;22.50;53.80
1351;DHT22;669;50.206;9.998;2022-08-19T09:06:14;22.60;53.00
1351;DHT22;669;50.206;9.998;2022-08-19T09:09:00;22.60;53.30
1351;DHT22;669;50.206;9.998;2022-08-19T09:11:47;22.60;52.80
1351;DHT22;669;50.206;9.998;2022-08-19T09:14:32;22.70;52.20
1351;DHT22;669;50.206;9.998;2022-08-19T09:17:20;22.70;52.10
1351;DHT22;669;50.206;9.998;2022-08-19T09:19:56;22.90;50.60
1351;DHT22;669;50.206;9.998;2022-08-19T09:22:24;22.90;51.10
1351;DHT22;669;50.206;9.998;2022-08-19T09:24:54;23.00;50.80
1351;DHT22;669;50.206;9.998;2022-08-19T09:27:28;23.00;50.70
1351;DHT22;669;50.206;9.998;2022-08-19T09:30:12;23.10;51.30
1351;DHT22;669;50.206;9.998;2022-08-19T09:32:41;23.30;50.10
1351;DHT22;669;50.206;9.998;2022-08-19T09:35:10;23.30;49.80
1351;DHT22;669;50.206;9.998;2022-08-19T09:37:39;23.40;49.00
1351;DHT22;669;50.206;9.998;2022-08-19T09:40:09;23.40;49.10
1351;DHT22;669;50.206;9.998;2022-08-19T09:42:40;23.50;48.60
1351;DHT22;669;50.206;9.998;2022-08-19T09:45:21;23.60;47.40
1351;DHT22;669;50.206;9.998;2022-08-19T09:47:50;23.70;46.90
1351;DHT22;669;50.206;9.998;2022-08-19T09:50:21;23.70;45.90
1351;DHT22;669;50.206;9.998;2022-08-19T09:52:50;23.80;46.30
1351;DHT22;669;50.206;9.998;2022-08-19T09:55:24;23.80;44.60
1351;DHT22;669;50.206;9.998;2022-08-19T09:58:00;23.90;44.50
1351;DHT22;669;50.206;9.998;2022-08-19T10:00:28;24.00;45.30
1351;DHT22;669;50.206;9.998;2022-08-19T10:02:57;24.20;43.90
1351;DHT22;669;50.206;9.998;2022-08-19T10:05:26;24.40;44.70
1351;DHT22;669;50.206;9.998;2022-08-19T10:08:15;24.60;44.10
1351;DHT22;669;50.206;9.998;2022-08-19T10:10:44;24.80;43.50
1351;DHT22;669;50.206;9.998;2022-08-19T10:13:15;25.00;42.50
1351;DHT22;669;50.206;9.998;2022-08-19T10:15:43;25.20;41.90
1351;DHT22;669;50.206;9.998;2022-08-19T10:18:15;25.20;42.40
1351;DHT22;669;50.206;9.998;2022-08-19T10:20:45;25.40;42.00
1351;DHT22;669;50.206;9.998;2022-08-19T10:23:19;25.40;41.40
1351;DHT22;669;50.206;9.998;2022-08-19T10:25:47;25.30;41.00
1351;DHT22;669;50.206;9.998;2022-08-19T10:28:17;25.40;41.00
1351;DHT22;669;50.206;9.998;2022-08-19T10:30:46;25.40;40.90
1351;DHT22;669;50.206;9.998;2022-08-19T10:33:14;25.40;42.10
1351;DHT22;669;50.206;9.998;2022-08-19T10:36:04;25.30;41.40
1351;DHT22;669;50.206;9.998;2022-08-19T10:38:33;25.10;41.50
1351;DHT22;669;50.206;9.998;2022-08-19T10:41:10;25.00;42.30
1351;DHT22;669;50.206;9.998;2022-08-19T10:43:41;24.90;42.00
1351;DHT22;669;50.206;9.998;2022-08-19T10:46:11;24.80;41.80
1351;DHT22;669;50.206;9.998;2022-08-19T10:48:44;24.70;41.30
1351;DHT22;669;50.206;9.998;2022-08-19T10:51:13;24.70;42.70
1351;DHT22;669;50.206;9.998;2022-08-19T10:54:00;24.70;41.70
1351;DHT22;669;50.206;9.998;2022-08-19T10:56:33;24.70;43.40
1351;DHT22;669;50.206;9.998;2022-08-19T10:59:21;24.70;42.30
1351;DHT22;669;50.206;9.998;2022-08-19T11:01:53;24.70;42.20
1351;DHT22;669;50.206;9.998;2022-08-19T11:04:23;24.70;43.30
1351;DHT22;669;50.206;9.998;2022-08-19T11:06:55;24.60;42.70
1351;DHT22;669;50.206;9.998;2022-08-19T11:09:25;24.60;41.60
1351;DHT22;669;50.206;9.998;2022-08-19T11:12:00;24.70;41.20
1351;DHT22;669;50.206;9.998;2022-08-19T11:14:31;24.70;42.20
1351;DHT22;669;50.206;9.998;2022-08-19T11:17:01;24.80;41.40
1351;DHT22;669;50.206;9.998;2022-08-19T11:19:29;24.90;40.50
1351;DHT22;669;50.206;9.998;2022-08-19T11:21:57;24.90;42.70
1351;DHT22;669;50.206;9.998;2022-08-19T11:24:27;25.00;41.30
1351;DHT22;669;50.206;9.998;2022-08-19T11:27:01;25.10;41.20
1351;DHT22;669;50.206;9.998;2022-08-19T11:29:33;25.20;41.80
1351;DHT22;669;50.206;9.998;2022-08-19T11:32:04;25.50;41.60
1351;DHT22;669;50.206;9.998;2022-08-19T11:34:32;25.40;40.40
1351;DHT22;669;50.206;9.998;2022-08-19T11:37:02;25.50;38.50
1351;DHT22;669;50.206;9.998;2022-08-19T11:39:32;25.50;37.10
1351;DHT22;669;50.206;9.998;2022-08-19T11:42:00;25.70;37.60
1351;DHT22;669;50.206;9.998;2022-08-19T11:44:29;25.80;36.50
1351;DHT22;669;50.206;9.998;2022-08-19T11:46:58;25.90;36.00
1351;DHT22;669;50.206;9.998;2022-08-19T11:49:34;26.00;35.50
1351;DHT22;669;50.206;9.998;2022-08-19T11:52:03;26.00;35.40
1351;DHT22;669;50.206;9.998;2022-08-19T11:54:31;26.00;36.60
1351;DHT22;669;50.206;9.998;2022-08-19T11:56:59;26.10;37.60
1351;DHT22;669;50.206;9.998;2022-08-19T11:59:27;26.10;37.30
1351;DHT22;669;50.206;9.998;2022-08-19T12:01:55;26.10;36.30
1351;DHT22;669;50.206;9.998;2022-08-19T12:04:25;26.00;36.60
1351;DHT22;669;50.206;9.998;2022-08-19T12:06:53;25.90;36.60
1351;DHT22;669;50.206;9.998;2022-08-19T12:09:21;25.80;36.10
1351;DHT22;669;50.206;9.998;2022-08-19T12:11:49;25.80;37.00
1351;DHT22;669;50.206;9.998;2022-08-19T12:14:18;25.70;37.30
1351;DHT22;669;50.206;9.998;2022-08-19T12:16:46;25.60;37.20
1351;DHT22;669;50.206;9.998;2022-08-19T12:19:18;25.70;37.10
1351;DHT22;669;50.206;9.998;2022-08-19T12:21:50;25.80;36.70
1351;DHT22;669;50.206;9.998;2022-08-19T12:24:19;25.80;37.00
1351;DHT22;669;50.206;9.998;2022-08-19T12:26:50;25.80;36.80
1351;DHT22;669;50.206;9.998;2022-08-19T12:29:20;25.80;35.20
1351;DHT22;669;50.206;9.998;2022-08-19T12:31:55;25.90;36.30
1351;DHT22;669;50.206;9.998;2022-08-19T12:34:27;25.90;35.90
1351;DHT22;669;50.206;9.998;2022-08-19T12:37:00;26.00;37.00
1351;DHT22;669;50.206;9.998;2022-08-19T12:39:28;26.00;35.80
1351;DHT22;669;50.206;9.998;2022-08-19T12:41:57;26.00;36.50
1351;DHT22;669;50.206;9.998;2022-08-19T12:44:25;25.90;36.10
1351;DHT22;669;50.206;9.998;2022-08-19T12:46:58;25.80;36.40
1351;DHT22;669;50.206;9.998;2022-08-19T12:49:27;25.80;36.60
1351;DHT22;669;50.206;9.998;2022-08-19T12:52:16;25.80;36.40
1351;DHT22;669;50.206;9.998;2022-08-19T12:54:50;25.70;36.40
1351;DHT22;669;50.206;9.998;2022-08-19T12:57:21;25.70;36.00
1351;DHT22;669;50.206;9.998;2022-08-19T12:59:58;25.80;36.50
1351;DHT22;669;50.206;9.998;2022-08-19T13:02:26;25.80;37.00
1351;DHT22;669;50.206;9.998;2022-08-19T13:04:54;25.80;37.50
1351;DHT22;669;50.206;9.998;2022-08-19T13:07:24;25.80;37.60
1351;DHT22;669;50.206;9.998;2022-08-19T13:09:52;25.80;37.50
1351;DHT22;669;50.206;9.998;2022-08-19T13:12:20;25.90;37.50
1351;DHT22;669;50.206;9.998;2022-08-19T13:14:51;25.90;37.00
1351;DHT22;669;50.206;9.998;2022-08-19T13:17:19;25.90;37.00
1351;DHT22;669;50.206;9.998;2022-08-19T13:19:47;25.90;36.60
1351;DHT22;669;50.206;9.998;2022-08-19T13:22:15;25.90;36.60
1351;DHT22;669;50.206;9.998;2022-08-19T13:24:45;25.80;36.40
1351;DHT22;669;50.206;9.998;2022-08-19T13:27:13;25.70;37.30
1351;DHT22;669;50.206;9.998;2022-08-19T13:29:42;25.60;37.50
1351;DHT22;669;50.206;9.998;2022-08-19T13:32:28;25.60;38.00
1351;DHT22;669;50.206;9.998;2022-08-19T13:35:15;25.50;38.30
1351;DHT22;669;50.206;9.998;2022-08-19T13:37:44;25.60;38.60
1351;DHT22;669;50.206;9.998;2022-08-19T13:40:16;25.60;37.80
1351;DHT22;669;50.206;9.998;2022-08-19T13:42:47;25.70;38.00
1351;DHT22;669;50.206;9.998;2022-08-19T13:45:18;25.70;37.30
1351;DHT22;669;50.206;9.998;2022-08-19T13:47:47;25.60;37.10
1351;DHT22;669;50.206;9.998;2022-08-19T13:50:16;25.70;37.70
1351;DHT22;669;50.206;9.998;2022-08-19T13:52:45;25.70;37.30
1351;DHT22;669;50.206;9.998;2022-08-19T13:55:15;25.80;38.20
1351;DHT22;669;50.206;9.998;2022-08-19T13:57:51;25.80;37.70
1351;DHT22;669;50.206;9.998;2022-08-19T14:00:21;25.90;37.60
1351;DHT22;669;50.206;9.998;2022-08-19T14:02:52;26.00;36.20
1351;DHT22;669;50.206;9.998;2022-08-19T14:05:21;26.00;37.30
1351;DHT22;669;50.206;9.998;2022-08-19T14:07:49;26.00;37.40
1351;DHT22;669;50.206;9.998;2022-08-19T14:10:19;26.00;37.70
1351;DHT22;669;50.206;9.998;2022-08-19T14:12:47;26.00;36.50
1351;DHT22;669;50.206;9.998;2022-08-19T14:15:15;26.00;36.90
1351;DHT22;669;50.206;9.998;2022-08-19T14:17:44;25.80;37.30
1351;DHT22;669;50.206;9.998;2022-08-19T14:20:14;25.80;38.10
1351;DHT22;669;50.206;9.998;2022-08-19T14:22:45;25.70;37.70
1351;DHT22;669;50.206;9.998;2022-08-19T14:25:17;25.70;39.10
1351;DHT22;669;50.206;9.998;2022-08-19T14:27:47;25.60;37.90
1351;DHT22;669;50.206;9.998;2022-08-19T14:30:17;25.60;38.90
1351;DHT22;669;50.206;9.998;2022-08-19T14:32:46;25.50;38.50
1351;DHT22;669;50.206;9.998;2022-08-19T14:35:15;25.50;38.00
1351;DHT22;669;50.206;9.998;2022-08-19T14:37:45;25.50;37.40
1351;DHT22;669;50.206;9.998;2022-08-19T14:40:15;25.60;37.30
1351;DHT22;669;50.206;9.998;2022-08-19T14:42:43;25.50;37.50
1351;DHT22;669;50.206;9.998;2022-08-19T14:45:12;25.60;38.40
1351;DHT22;669;50.206;9.998;2022-08-19T14:47:40;25.60;37.60
1351;DHT22;669;50.206;9.998;2022-08-19T14:50:11;25.70;38.10
1351;DHT22;669;50.206;9.998;2022-08-19T14:52:44;25.60;37.90
1351;DHT22;669;50.206;9.998;2022-08-19T14:55:12;25.60;38.40
1351;DHT22;669;50.206;9.998;2022-08-19T14:57:40;25.70;37.90
1351;DHT22;669;50.206;9.998;2022-08-19T15:00:10;25.60;38.10
1351;DHT22;669;50.206;9.998;2022-08-19T15:02:41;25.60;37.40
1351;DHT22;669;50.206;9.998;2022-08-19T15:05:10;25.50;38.10
1351;DHT22;669;50.206;9.998;2022-08-19T15:07:39;25.50;37.70
1351;DHT22;669;50.206;9.998;2022-08-19T15:10:09;25.40;38.00
1351;DHT22;669;50.206;9.998;2022-08-19T15:12:39;25.40;39.00
1351;DHT22;669;50.206;9.998;2022-08-19T15:15:10;25.40;39.00
1351;DHT22;669;50.206;9.998;2022-08-19T15:17:42;25.40;38.40
1351;DHT22;669;50.206;9.998;2022-08-19T15:20:14;25.30;37.90
1351;DHT22;669;50.206;9.998;2022-08-19T15:22:42;25.30;38.90
1351;DHT22;669;50.206;9.998;2022-08-19T15:25:13;25.30;38.60
1351;DHT22;669;50.206;9.998;2022-08-19T15:27:41;25.30;38.70
1351;DHT22;669;50.206;9.998;2022-08-19T15:30:11;25.30;39.30
1351;DHT22;669;50.206;9.998;2022-08-19T15:32:40;25.50;39.30
1351;DHT22;669;50.206;9.998;2022-08-19T15:35:14;25.50;38.00
1351;DHT22;669;50.206;9.998;2022-08-19T15:37:44;25.50;37.40
1351;DHT22;669;50.206;9.998;2022-08-19T15:40:12;25.50;36.90
1351;DHT22;669;50.206;9.998;2022-08-19T15:42:40;25.60;36.70
1351;DHT22;669;50.206;9.998;2022-08-19T15:45:09;25.60;36.80
1351;DHT22;669;50.206;9.998;2022-08-19T15:47:38;25.70;35.20
1351;DHT22;669;50.206;9.998;2022-08-19T15:50:10;25.70;35.80
1351;DHT22;669;50.206;9.998;2022-08-19T15:52:45;25.70;35.80
1351;DHT22;669;50.206;9.998;2022-08-19T15:55:16;25.80;36.00
1351;DHT22;669;50.206;9.998;2022-08-19T15:58:00;25.80;36.40
1351;DHT22;669;50.206;9.998;2022-08-19T16:00:55;25.90;35.90
1351;DHT22;669;50.206;9.998;2022-08-19T16:03:59;25.90;35.30
1351;DHT22;669;50.206;9.998;2022-08-19T16:06:48;26.00;35.40
1351;DHT22;669;50.206;9.998;2022-08-19T16:09:18;25.90;35.30
1351;DHT22;669;50.206;9.998;2022-08-19T16:11:52;25.90;35.30
1351;DHT22;669;50.206;9.998;2022-08-19T16:14:27;25.80;35.20
1351;DHT22;669;50.206;9.998;2022-08-19T16:16:55;25.70;35.20
1351;DHT22;669;50.206;9.998;2022-08-19T16:19:23;25.60;35.10
1351;DHT22;669;50.206;9.998;2022-08-19T16:21:55;25.50;36.10
1351;DHT22;669;50.206;9.998;2022-08-19T16:24:25;25.50;36.00
1351;DHT22;669;50.206;9.998;2022-08-19T16:26:54;25.50;36.30
1351;DHT22;669;50.206;9.998;2022-08-19T16:29:23;25.40;35.80
1351;DHT22;669;50.206;9.998;2022-08-19T16:32:10;25.30;36.40
1351;DHT22;669;50.206;9.998;2022-08-19T16:34:39;25.30;36.50
1351;DHT22;669;50.206;9.998;2022-08-19T16:37:09;25.20;36.70
1351;DHT22;669;50.206;9.998;2022-08-19T16:39:37;25.10;36.00
1351;DHT22;669;50.206;9.998;2022-08-19T16:42:07;25.10;36.40
1351;DHT22;669;50.206;9.998;2022-08-19T16:44:36;25.00;36.80